AirNav   Pilot Hours Calculator
 
 1345 users online  

NC37 Mountain View Aerodrome
Reidsville, North Carolina, USA

GOING TO REIDSVILLE?


FAA INFORMATION EFFECTIVE 25 MARCH 2021

Location

FAA Identifier: NC37
Lat/Long: 36-20-24.4910N 079-50-28.1290W
36-20.408183N 079-50.468817W
36.3401364,-79.8411469
(estimated)
Elevation: 800 ft. / 244 m (estimated)
Variation: 06W (1985)
From city: 12 miles W of REIDSVILLE, NC
Time zone: UTC -4 (UTC -5 during Standard Time)
Zip code: 27320

Airport Operations

Airport use: Private use. Permission required prior to landing
Activation date: 11/1988
Control tower: no
ARTCC: ATLANTA CENTER
FSS: RALEIGH FLIGHT SERVICE STATION
Attendance: CONTINUOUS
Wind indicator: no
Segmented circle: no

Airport Communications

WX AWOS-3 at SIF (6 nm N): 119.775 (336-573-3677)
WX ASOS at GSO (15 nm S): 128.55 (336-393-0168)
WX AWOS-3 at MTV (19 nm NW): 118.45 (276-957-3784)

Nearby radio navigation aids

VOR radial/distance  VOR name  Freq  Var
GSOr023/18.8GREENSBORO VORTAC116.2003W
DANr247/(27.9)DANVILLE VOR113.1006W
LIBr344/33.6LIBERTY VORTAC113.0003W

 
NDB name  Hdg/Dist  Freq  Var  ID
SLAMMER244/4.542307WSIF ... .. ..-.
PERSON288/38.022008WHUR .... ..- .-.

Airport Services

Runway Information

Runway 12/30

Dimensions: 2000 x 50 ft. / 610 x 15 m
Surface: turf
RUNWAY 12  RUNWAY 30
Traffic pattern: leftleft
Obstructions: nonepline

Airport Ownership and Management from official FAA records

Ownership: Privately-owned
Owner: W.N. & E.C. HESTER
1102 GREEN ST.
REIDSVILLE, NC 27320
Phone 336-342-5322
Manager: W.N. & E.C. HESTER
1102 GREEN ST.
REIDSVILLE, NC 27320
Phone 336-342-5322

Airport Operational Statistics

Aircraft based on the field: 1
Single engine airplanes: 1
    

Additional Remarks

FOR CD CTC ATLANTA ARTCC AT 770-210-7692.

Instrument Procedures

There are no published instrument procedures at NC37.

Some nearby airports with instrument procedures:

KSIF - Rockingham County NC Shiloh Airport (6 nm N)
N63 - Meadow Brook Field Airport (15 nm W)
KGSO - Piedmont Triad International Airport (15 nm S)
KMTV - Blue Ridge Airport (19 nm NW)
KINT - Smith Reynolds Airport (22 nm SW)
 
Loc | Ops | Rwys | IFR | FBO | Links
Com | Nav | Svcs | Stats | Notes
Area around NC37 (Mountain View Aerodrome)
 
Road maps at: MapQuest Bing Google
 
Aerial photo
No photo
 
Sectional chart

 
Airport distance calculator
Flying to Mountain View Aerodrome? Find the distance to fly.

From to NC37

Sunrise and sunset
Times for 16-Apr-2021
 Local
(UTC-4)
 Zulu
(UTC)
Morning civil twilight06:1910:19
Sunrise06:4610:46
Sunset19:5323:53
Evening civil twilight20:1900:19

Current date and time
Zulu (UTC)  16-Apr-2021 21:33:21
Local (UTC-4)  16-Apr-2021 17:33:21
 
METAR
KSIF 
6nm N 
162115Z AUTO 29006KT 10SM CLR 20/M03 A2976 RMK AO2 T02041031
KGSO 
15nm S 
162054Z 25009KT 210V280 10SM FEW065 BKN250 17/01 A2977 RMK AO2 SLP078 T01720006 56023
KMTV 
19nm NW 
162115Z AUTO 26008KT 10SM CLR 19/00 A2979 RMK AO2 T01911002
TAF
KGSO 
15nm S 
161738Z 1618/1718 31006KT P6SM FEW060 SCT250 FM162300 34005KT P6SM SCT050 BKN150 FM171300 01003KT P6SM BKN040 OVC090
NOTAMs
Click for the latest NOTAMs
NOTAMs are issued by the DoD/FAA and will open in a separate window not controlled by AirNav.

 

 
 

Would you like to see your business listed on this page?

 If your business provides an interesting product or service to pilots, flight crews, aircraft, or users of the Mountain View Aerodrome, you should consider listing it here.  To start the listing process, click on the button below
 
Add a business
 

Other Pages about Mountain View Aerodrome

Update a link
 
Copyright © AirNav, LLC. All rights reserved. Privacy Policy  Contact